sensor_id;sensor_type;location;lat;lon;timestamp;pressure;altitude;pressure_sealevel;temperature;humidity
11347;BME280;5728;42.722;23.258;2023-04-05T00:01:55;94305.59;;;0.50;100.00
11347;BME280;5728;42.722;23.258;2023-04-05T00:04:22;94296.25;;;0.49;100.00
11347;BME280;5728;42.722;23.258;2023-04-05T00:06:49;94276.72;;;0.50;100.00
11347;BME280;5728;42.722;23.258;2023-04-05T00:09:17;94286.81;;;0.44;100.00
11347;BME280;5728;42.722;23.258;2023-04-05T00:11:47;94295.97;;;0.31;100.00
11347;BME280;5728;42.722;23.258;2023-04-05T00:14:14;94287.56;;;0.38;100.00
11347;BME280;5728;42.722;23.258;2023-04-05T00:16:41;94282.47;;;0.38;100.00
11347;BME280;5728;42.722;23.258;2023-04-05T00:19:08;94298.84;;;0.52;100.00
11347;BME280;5728;42.722;23.258;2023-04-05T00:21:37;94290.19;;;0.43;100.00
11347;BME280;5728;42.722;23.258;2023-04-05T00:24:04;94284.28;;;0.45;100.00
11347;BME280;5728;42.722;23.258;2023-04-05T00:26:31;94294.25;;;0.30;100.00
11347;BME280;5728;42.722;23.258;2023-04-05T00:28:59;94295.72;;;0.16;100.00
11347;BME280;5728;42.722;23.258;2023-04-05T00:31:27;94293.28;;;0.22;100.00
11347;BME280;5728;42.722;23.258;2023-04-05T00:33:54;94290.69;;;0.19;100.00
11347;BME280;5728;42.722;23.258;2023-04-05T00:36:22;94295.59;;;0.07;100.00
11347;BME280;5728;42.722;23.258;2023-04-05T00:38:48;94301.53;;;0.06;100.00
11347;BME280;5728;42.722;23.258;2023-04-05T00:41:15;94295.78;;;0.19;100.00
11347;BME280;5728;42.722;23.258;2023-04-05T00:43:42;94295.84;;;0.22;100.00
11347;BME280;5728;42.722;23.258;2023-04-05T00:46:10;94294.31;;;0.33;100.00
11347;BME280;5728;42.722;23.258;2023-04-05T00:48:38;94284.84;;;0.25;100.00
11347;BME280;5728;42.722;23.258;2023-04-05T00:51:05;94303.56;;;0.28;100.00
11347;BME280;5728;42.722;23.258;2023-04-05T00:53:35;94301.19;;;0.40;100.00
11347;BME280;5728;42.722;23.258;2023-04-05T00:56:03;94293.28;;;0.22;100.00
11347;BME280;5728;42.722;23.258;2023-04-05T00:58:30;94302.59;;;0.20;100.00
11347;BME280;5728;42.722;23.258;2023-04-05T01:01:02;94311.09;;;0.19;100.00
11347;BME280;5728;42.722;23.258;2023-04-05T01:03:34;94306.28;;;0.37;100.00
11347;BME280;5728;42.722;23.258;2023-04-05T01:06:10;94306.03;;;0.22;100.00
11347;BME280;5728;42.722;23.258;2023-04-05T01:08:50;94308.59;;;0.24;100.00
11347;BME280;5728;42.722;23.258;2023-04-05T01:11:18;94301.06;;;0.31;100.00
11347;BME280;5728;42.722;23.258;2023-04-05T01:13:46;94304.50;;;0.32;100.00
11347;BME280;5728;42.722;23.258;2023-04-05T01:16:13;94308.63;;;0.25;100.00
11347;BME280;5728;42.722;23.258;2023-04-05T01:18:41;94306.16;;;0.31;100.00
11347;BME280;5728;42.722;23.258;2023-04-05T01:21:47;94305.13;;;0.19;100.00
11347;BME280;5728;42.722;23.258;2023-04-05T01:24:26;94308.84;;;0.40;100.00
11347;BME280;5728;42.722;23.258;2023-04-05T01:27:01;94313.06;;;0.38;100.00
11347;BME280;5728;42.722;23.258;2023-04-05T01:29:49;94314.00;;;0.43;100.00
11347;BME280;5728;42.722;23.258;2023-04-05T01:32:38;94312.09;;;0.30;100.00
11347;BME280;5728;42.722;23.258;2023-04-05T01:35:11;94312.94;;;0.29;100.00
11347;BME280;5728;42.722;23.258;2023-04-05T01:37:42;94313.94;;;0.39;100.00
11347;BME280;5728;42.722;23.258;2023-04-05T01:40:10;94317.16;;;0.27;100.00
11347;BME280;5728;42.722;23.258;2023-04-05T01:42:37;94313.00;;;0.32;100.00
11347;BME280;5728;42.722;23.258;2023-04-05T01:45:06;94321.47;;;0.31;100.00
11347;BME280;5728;42.722;23.258;2023-04-05T01:47:33;94319.03;;;0.40;100.00
11347;BME280;5728;42.722;23.258;2023-04-05T01:49:59;94317.13;;;0.26;100.00
11347;BME280;5728;42.722;23.258;2023-04-05T01:52:26;94319.03;;;0.39;100.00
11347;BME280;5728;42.722;23.258;2023-04-05T01:54:53;94316.47;;;0.37;99.70
11347;BME280;5728;42.722;23.258;2023-04-05T01:57:20;94326.56;;;0.31;99.44
11347;BME280;5728;42.722;23.258;2023-04-05T01:59:46;94318.97;;;0.34;98.85
11347;BME280;5728;42.722;23.258;2023-04-05T02:02:14;94319.28;;;0.55;99.55
11347;BME280;5728;42.722;23.258;2023-04-05T02:04:41;94323.44;;;0.47;98.75
11347;BME280;5728;42.722;23.258;2023-04-05T02:07:08;94317.69;;;0.63;99.12
11347;BME280;5728;42.722;23.258;2023-04-05T02:09:34;94320.03;;;0.48;98.91
11347;BME280;5728;42.722;23.258;2023-04-05T02:12:01;94313.94;;;0.39;98.10
11347;BME280;5728;42.722;23.258;2023-04-05T02:14:28;94314.69;;;0.33;98.92
11347;BME280;5728;42.722;23.258;2023-04-05T02:16:55;94312.81;;;0.22;99.15
11347;BME280;5728;42.722;23.258;2023-04-05T02:19:23;94319.75;;;0.30;99.77
11347;BME280;5728;42.722;23.258;2023-04-05T02:21:50;94325.88;;;0.43;99.33
11347;BME280;5728;42.722;23.258;2023-04-05T02:24:18;94332.91;;;0.56;99.26
11347;BME280;5728;42.722;23.258;2023-04-05T02:26:45;94335.00;;;0.27;99.41
11347;BME280;5728;42.722;23.258;2023-04-05T02:29:11;94333.53;;;0.41;99.20
11347;BME280;5728;42.722;23.258;2023-04-05T02:31:38;94329.19;;;0.34;99.33
11347;BME280;5728;42.722;23.258;2023-04-05T02:34:05;94326.69;;;0.40;99.55
11347;BME280;5728;42.722;23.258;2023-04-05T02:36:34;94324.94;;;0.36;99.70
11347;BME280;5728;42.722;23.258;2023-04-05T02:39:01;94323.22;;;0.35;99.91
11347;BME280;5728;42.722;23.258;2023-04-05T02:41:28;94325.66;;;0.28;99.90
11347;BME280;5728;42.722;23.258;2023-04-05T02:43:55;94325.13;;;0.48;99.25
11347;BME280;5728;42.722;23.258;2023-04-05T02:46:23;94316.47;;;0.37;99.45
11347;BME280;5728;42.722;23.258;2023-04-05T02:48:50;94318.44;;;0.55;99.55
11347;BME280;5728;42.722;23.258;2023-04-05T02:51:16;94316.81;;;0.60;99.08
11347;BME280;5728;42.722;23.258;2023-04-05T02:53:44;94316.56;;;0.43;99.18
11347;BME280;5728;42.722;23.258;2023-04-05T02:56:12;94322.53;;;0.45;100.00
11347;BME280;5728;42.722;23.258;2023-04-05T02:58:39;94318.56;;;0.62;99.37
11347;BME280;5728;42.722;23.258;2023-04-05T03:01:06;94320.81;;;0.44;99.68
11347;BME280;5728;42.722;23.258;2023-04-05T03:03:33;94315.91;;;0.56;99.81
11347;BME280;5728;42.722;23.258;2023-04-05T03:06:02;94321.06;;;0.59;99.20
11347;BME280;5728;42.722;23.258;2023-04-05T03:08:34;94319.28;;;0.55;99.99
11347;BME280;5728;42.722;23.258;2023-04-05T03:11:04;94322.34;;;0.32;99.72
11347;BME280;5728;42.722;23.258;2023-04-05T03:13:31;94316.66;;;0.49;100.00
11347;BME280;5728;42.722;23.258;2023-04-05T03:15:57;94316.56;;;0.43;99.84
11347;BME280;5728;42.722;23.258;2023-04-05T03:18:24;94326.91;;;0.54;100.00
11347;BME280;5728;42.722;23.258;2023-04-05T03:20:52;94319.97;;;0.42;100.00
11347;BME280;5728;42.722;23.258;2023-04-05T03:23:21;94313.88;;;0.34;99.92
11347;BME280;5728;42.722;23.258;2023-04-05T03:25:53;94317.25;;;0.33;100.00
11347;BME280;5728;42.722;23.258;2023-04-05T03:28:21;94316.56;;;0.43;100.00
11347;BME280;5728;42.722;23.258;2023-04-05T03:30:49;94306.28;;;0.39;100.00
11347;BME280;5728;42.722;23.258;2023-04-05T03:33:15;94312.19;;;0.35;100.00
11347;BME280;5728;42.722;23.258;2023-04-05T03:35:42;94318.09;;;0.34;100.00
11347;BME280;5728;42.722;23.258;2023-04-05T03:38:09;94309.81;;;0.48;99.87
11347;BME280;5728;42.722;23.258;2023-04-05T03:40:36;94312.44;;;0.53;98.78
11347;BME280;5728;42.722;23.258;2023-04-05T03:43:02;94318.22;;;0.41;99.46
11347;BME280;5728;42.722;23.258;2023-04-05T03:45:30;94316.88;;;0.66;99.77
11347;BME280;5728;42.722;23.258;2023-04-05T03:47:58;94321.94;;;0.61;99.63
11347;BME280;5728;42.722;23.258;2023-04-05T03:50:25;94320.19;;;0.59;99.75
11347;BME280;5728;42.722;23.258;2023-04-05T03:52:52;94324.59;;;0.71;99.86
11347;BME280;5728;42.722;23.258;2023-04-05T03:55:18;94329.59;;;0.63;98.82
11347;BME280;5728;42.722;23.258;2023-04-05T03:57:46;94334.84;;;0.74;99.47
11347;BME280;5728;42.722;23.258;2023-04-05T04:00:13;94361.25;;;0.76;98.85
11347;BME280;5728;42.722;23.258;2023-04-05T04:02:44;94339.06;;;0.70;98.07
11347;BME280;5728;42.722;23.258;2023-04-05T04:05:12;94346.09;;;0.85;98.44
11347;BME280;5728;42.722;23.258;2023-04-05T04:07:39;94336.53;;;0.73;97.53
11347;BME280;5728;42.722;23.258;2023-04-05T04:10:10;94343.91;;;0.52;97.69
11347;BME280;5728;42.722;23.258;2023-04-05T04:12:37;94342.97;;;0.48;97.89
11347;BME280;5728;42.722;23.258;2023-04-05T04:15:05;94344.78;;;0.54;98.57
11347;BME280;5728;42.722;23.258;2023-04-05T04:17:34;94345.09;;;0.75;98.15
11347;BME280;5728;42.722;23.258;2023-04-05T04:20:03;94350.88;;;0.63;99.12
11347;BME280;5728;42.722;23.258;2023-04-05T04:22:34;94357.50;;;0.52;99.38
11347;BME280;5728;42.722;23.258;2023-04-05T04:25:03;94348.44;;;0.71;100.00
11347;BME280;5728;42.722;23.258;2023-04-05T04:27:35;94339.69;;;0.55;99.14
11347;BME280;5728;42.722;23.258;2023-04-05T04:30:06;94350.69;;;0.50;99.94
11347;BME280;5728;42.722;23.258;2023-04-05T04:32:35;94352.44;;;0.54;100.00
11347;BME280;5728;42.722;23.258;2023-04-05T04:35:19;94345.59;;;0.51;99.61
11347;BME280;5728;42.722;23.258;2023-04-05T04:37:51;94359.84;;;0.40;97.88
11347;BME280;5728;42.722;23.258;2023-04-05T04:40:19;94345.53;;;0.48;99.11
11347;BME280;5728;42.722;23.258;2023-04-05T04:42:47;94350.63;;;0.48;98.15
11347;BME280;5728;42.722;23.258;2023-04-05T04:45:16;94357.53;;;0.55;99.54
11347;BME280;5728;42.722;23.258;2023-04-05T04:47:43;94367.25;;;0.25;99.13
11347;BME280;5728;42.722;23.258;2023-04-05T04:50:12;94357.22;;;0.34;100.00
11347;BME280;5728;42.722;23.258;2023-04-05T04:52:41;94359.88;;;0.42;100.00
11347;BME280;5728;42.722;23.258;2023-04-05T04:55:09;94360.03;;;0.51;100.00
11347;BME280;5728;42.722;23.258;2023-04-05T04:57:38;94355.91;;;0.57;99.46
11347;BME280;5728;42.722;23.258;2023-04-05T05:00:06;94365.19;;;0.54;99.28
11347;BME280;5728;42.722;23.258;2023-04-05T05:02:36;94361.75;;;0.53;99.03
11347;BME280;5728;42.722;23.258;2023-04-05T05:05:04;94355.03;;;0.58;99.19
11347;BME280;5728;42.722;23.258;2023-04-05T05:07:31;94362.63;;;0.54;99.27
11347;BME280;5728;42.722;23.258;2023-04-05T05:09:59;94349.75;;;0.46;99.22
11347;BME280;5728;42.722;23.258;2023-04-05T05:12:26;94362.75;;;0.61;99.23
11347;BME280;5728;42.722;23.258;2023-04-05T05:14:54;94354.09;;;0.53;98.90
11347;BME280;5728;42.722;23.258;2023-04-05T05:17:21;94369.34;;;0.47;98.45
11347;BME280;5728;42.722;23.258;2023-04-05T05:19:48;94362.31;;;0.34;98.74
11347;BME280;5728;42.722;23.258;2023-04-05T05:22:15;94372.66;;;0.43;98.38
11347;BME280;5728;42.722;23.258;2023-04-05T05:24:42;94375.38;;;0.54;98.59
11347;BME280;5728;42.722;23.258;2023-04-05T05:27:10;94375.63;;;0.71;99.31
11347;BME280;5728;42.722;23.258;2023-04-05T05:29:37;94376.47;;;0.70;98.39
11347;BME280;5728;42.722;23.258;2023-04-05T05:32:04;94385.69;;;0.60;98.26
11347;BME280;5728;42.722;23.258;2023-04-05T05:34:31;94375.66;;;0.72;98.57
11347;BME280;5728;42.722;23.258;2023-04-05T05:36:58;94378.16;;;0.68;97.62
11347;BME280;5728;42.722;23.258;2023-04-05T05:39:25;94366.22;;;0.67;98.16
11347;BME280;5728;42.722;23.258;2023-04-05T05:41:52;94371.72;;;0.92;98.43
11347;BME280;5728;42.722;23.258;2023-04-05T05:44:20;94364.41;;;1.18;97.90
11347;BME280;5728;42.722;23.258;2023-04-05T05:46:47;94373.41;;;0.90;96.45
11347;BME280;5728;42.722;23.258;2023-04-05T05:49:14;94378.41;;;0.84;95.84
11347;BME280;5728;42.722;23.258;2023-04-05T05:51:40;94369.22;;;0.98;95.97
11347;BME280;5728;42.722;23.258;2023-04-05T05:54:07;94365.16;;;1.11;95.41
11347;BME280;5728;42.722;23.258;2023-04-05T05:56:34;94365.19;;;1.12;95.74
11347;BME280;5728;42.722;23.258;2023-04-05T05:59:01;94369.22;;;0.98;95.23
11347;BME280;5728;42.722;23.258;2023-04-05T06:01:29;94372.81;;;1.09;94.97
11347;BME280;5728;42.722;23.258;2023-04-05T06:03:58;94372.19;;;1.27;95.30
11347;BME280;5728;42.722;23.258;2023-04-05T06:06:25;94366.84;;;1.09;93.99
11347;BME280;5728;42.722;23.258;2023-04-05T06:08:54;94370.25;;;1.11;93.09
11347;BME280;5728;42.722;23.258;2023-04-05T06:11:21;94366.22;;;1.26;93.15
11347;BME280;5728;42.722;23.258;2023-04-05T06:13:49;94376.66;;;1.45;92.40
11347;BME280;5728;42.722;23.258;2023-04-05T06:16:16;94380.81;;;1.35;92.33
11347;BME280;5728;42.722;23.258;2023-04-05T06:18:44;94385.97;;;1.40;93.83
11347;BME280;5728;42.722;23.258;2023-04-05T06:21:11;94369.81;;;1.42;91.92
11347;BME280;5728;42.722;23.258;2023-04-05T06:23:38;94407.28;;;1.40;91.19
11347;BME280;5728;42.722;23.258;2023-04-05T06:26:06;94385.88;;;1.32;92.26
11347;BME280;5728;42.722;23.258;2023-04-05T06:28:33;94382.59;;;1.42;91.70
11347;BME280;5728;42.722;23.258;2023-04-05T06:30:59;94388.63;;;1.47;91.40
11347;BME280;5728;42.722;23.258;2023-04-05T06:33:27;94395.50;;;1.54;91.21
11347;BME280;5728;42.722;23.258;2023-04-05T06:35:55;94387.25;;;1.75;90.88
11347;BME280;5728;42.722;23.258;2023-04-05T06:38:22;94387.25;;;1.75;89.82
11347;BME280;5728;42.722;23.258;2023-04-05T06:40:48;94389.69;;;1.64;90.07
11347;BME280;5728;42.722;23.258;2023-04-05T06:43:15;94395.00;;;1.81;90.47
11347;BME280;5728;42.722;23.258;2023-04-05T06:45:42;94394.97;;;1.79;90.18
11347;BME280;5728;42.722;23.258;2023-04-05T06:48:09;94391.66;;;1.89;89.32
11347;BME280;5728;42.722;23.258;2023-04-05T06:50:36;94409.88;;;1.46;89.25
11347;BME280;5728;42.722;23.258;2023-04-05T06:53:05;94413.63;;;1.72;89.75
11347;BME280;5728;42.722;23.258;2023-04-05T06:55:32;94413.84;;;1.90;88.91
11347;BME280;5728;42.722;23.258;2023-04-05T06:57:59;94408.47;;;1.69;88.02
11347;BME280;5728;42.722;23.258;2023-04-05T07:00:25;94411.13;;;1.75;88.29
11347;BME280;5728;42.722;23.258;2023-04-05T07:02:52;94422.56;;;2.06;88.18
11347;BME280;5728;42.722;23.258;2023-04-05T07:05:19;94429.63;;;2.33;87.12
11347;BME280;5728;42.722;23.258;2023-04-05T07:07:46;94420.91;;;2.13;86.84
11347;BME280;5728;42.722;23.258;2023-04-05T07:10:14;94435.59;;;2.29;87.87
11347;BME280;5728;42.722;23.258;2023-04-05T07:12:41;94435.59;;;2.29;87.05
11347;BME280;5728;42.722;23.258;2023-04-05T07:15:09;94434.22;;;1.84;87.22
11347;BME280;5728;42.722;23.258;2023-04-05T07:17:36;94446.25;;;1.94;87.87
11347;BME280;5728;42.722;23.258;2023-04-05T07:20:03;94438.81;;;2.14;89.29
11347;BME280;5728;42.722;23.258;2023-04-05T07:22:32;94434.53;;;2.12;88.81
11347;BME280;5728;42.722;23.258;2023-04-05T07:24:59;94445.56;;;2.08;87.37
11347;BME280;5728;42.722;23.258;2023-04-05T07:27:28;94444.66;;;2.03;87.01
11347;BME280;5728;42.722;23.258;2023-04-05T07:29:55;94450.56;;;1.97;87.89
11347;BME280;5728;42.722;23.258;2023-04-05T07:32:22;94455.81;;;2.08;87.95
11347;BME280;5728;42.722;23.258;2023-04-05T07:34:48;94453.88;;;1.88;87.27
11347;BME280;5728;42.722;23.258;2023-04-05T07:37:15;94434.16;;;1.78;88.17
11347;BME280;5728;42.722;23.258;2023-04-05T07:39:42;94446.91;;;1.75;87.40
11347;BME280;5728;42.722;23.258;2023-04-05T07:42:09;94463.00;;;1.68;87.53
11347;BME280;5728;42.722;23.258;2023-04-05T07:44:37;94458.94;;;1.85;88.13
11347;BME280;5728;42.722;23.258;2023-04-05T07:47:04;94451.34;;;1.90;87.92
11347;BME280;5728;42.722;23.258;2023-04-05T07:49:30;94449.03;;;2.11;87.04
11347;BME280;5728;42.722;23.258;2023-04-05T07:51:58;94451.78;;;2.31;85.63
11347;BME280;5728;42.722;23.258;2023-04-05T07:54:24;94458.47;;;2.20;85.77
11347;BME280;5728;42.722;23.258;2023-04-05T07:56:51;94458.13;;;1.89;85.54
11347;BME280;5728;42.722;23.258;2023-04-05T07:59:19;94481.03;;;1.82;87.10
11347;BME280;5728;42.722;23.258;2023-04-05T08:01:47;94466.72;;;1.94;86.86
11347;BME280;5728;42.722;23.258;2023-04-05T08:04:14;94477.50;;;1.71;87.48
11347;BME280;5728;42.722;23.258;2023-04-05T08:06:41;94482.06;;;1.94;88.01
11347;BME280;5728;42.722;23.258;2023-04-05T08:09:07;94483.41;;;2.36;88.25
11347;BME280;5728;42.722;23.258;2023-04-05T08:11:37;94481.22;;;1.96;85.82
11347;BME280;5728;42.722;23.258;2023-04-05T08:14:04;94482.31;;;2.16;86.84
11347;BME280;5728;42.722;23.258;2023-04-05T08:16:31;94479.69;;;2.08;86.28
11347;BME280;5728;42.722;23.258;2023-04-05T08:18:59;94486.16;;;2.54;86.00
11347;BME280;5728;42.722;23.258;2023-04-05T08:21:26;94483.53;;;2.49;85.10
11347;BME280;5728;42.722;23.258;2023-04-05T08:23:53;94487.66;;;2.34;85.98
11347;BME280;5728;42.722;23.258;2023-04-05T08:26:21;94490.16;;;2.31;85.28
11347;BME280;5728;42.722;23.258;2023-04-05T08:28:47;94488.50;;;2.36;85.34
11347;BME280;5728;42.722;23.258;2023-04-05T08:31:14;94505.25;;;2.10;84.42
11347;BME280;5728;42.722;23.258;2023-04-05T08:33:41;94496.72;;;2.09;85.58
11347;BME280;5728;42.722;23.258;2023-04-05T08:36:10;94487.59;;;2.31;86.21
11347;BME280;5728;42.722;23.258;2023-04-05T08:38:37;94488.94;;;2.02;86.16
11347;BME280;5728;42.722;23.258;2023-04-05T08:41:07;94489.19;;;2.20;85.81
11347;BME280;5728;42.722;23.258;2023-04-05T08:43:46;94504.81;;;2.45;85.96
11347;BME280;5728;42.722;23.258;2023-04-05T08:46:19;94492.41;;;2.07;86.82
11347;BME280;5728;42.722;23.258;2023-04-05T08:48:47;94502.47;;;1.91;88.19
11347;BME280;5728;42.722;23.258;2023-04-05T08:51:19;94496.63;;;2.02;87.57
11347;BME280;5728;42.722;23.258;2023-04-05T08:53:46;94495.88;;;2.10;88.93
11347;BME280;5728;42.722;23.258;2023-04-05T08:56:14;94507.13;;;2.23;87.26
11347;BME280;5728;42.722;23.258;2023-04-05T08:58:47;94513.06;;;2.19;87.36
11347;BME280;5728;42.722;23.258;2023-04-05T09:01:15;94509.59;;;2.15;87.24
11347;BME280;5728;42.722;23.258;2023-04-05T09:03:43;94513.50;;;1.87;87.45
11347;BME280;5728;42.722;23.258;2023-04-05T09:06:11;94517.75;;;1.85;88.52
11347;BME280;5728;42.722;23.258;2023-04-05T09:08:40;94523.97;;;2.07;88.80
11347;BME280;5728;42.722;23.258;2023-04-05T09:11:06;94519.34;;;1.77;88.86
11347;BME280;5728;42.722;23.258;2023-04-05T09:13:33;94535.09;;;2.11;89.45
11347;BME280;5728;42.722;23.258;2023-04-05T09:16:00;94522.59;;;2.33;87.08
11347;BME280;5728;42.722;23.258;2023-04-05T09:18:27;94525.41;;;2.56;87.47
11347;BME280;5728;42.722;23.258;2023-04-05T09:21:01;94529.31;;;2.25;85.01
11347;BME280;5728;42.722;23.258;2023-04-05T09:23:30;94520.56;;;2.07;86.23
11347;BME280;5728;42.722;23.258;2023-04-05T09:25:58;94513.97;;;2.27;86.20
11347;BME280;5728;42.722;23.258;2023-04-05T09:28:39;94535.44;;;2.39;83.90
11347;BME280;5728;42.722;23.258;2023-04-05T09:31:07;94522.72;;;2.47;84.25
11347;BME280;5728;42.722;23.258;2023-04-05T09:33:33;94517.25;;;2.14;85.40
11347;BME280;5728;42.722;23.258;2023-04-05T09:36:01;94519.91;;;2.23;85.68
11347;BME280;5728;42.722;23.258;2023-04-05T09:38:46;94509.94;;;2.44;84.88
11347;BME280;5728;42.722;23.258;2023-04-05T09:41:14;94517.66;;;2.50;85.88
11347;BME280;5728;42.722;23.258;2023-04-05T09:43:41;94516.94;;;2.62;83.75
11347;BME280;5728;42.722;23.258;2023-04-05T09:46:28;94519.72;;;2.84;82.72
11347;BME280;5728;42.722;23.258;2023-04-05T09:48:55;94508.13;;;2.34;81.76
11347;BME280;5728;42.722;23.258;2023-04-05T09:51:22;94514.88;;;2.29;82.09
11347;BME280;5728;42.722;23.258;2023-04-05T09:53:56;94521.75;;;2.34;82.78
11347;BME280;5728;42.722;23.258;2023-04-05T09:56:25;94516.44;;;2.18;81.89
11347;BME280;5728;42.722;23.258;2023-04-05T09:58:57;94518.34;;;2.34;82.06
11347;BME280;5728;42.722;23.258;2023-04-05T10:01:26;94524.84;;;2.08;81.50
11347;BME280;5728;42.722;23.258;2023-04-05T10:03:53;94529.13;;;2.10;81.00
11347;BME280;5728;42.722;23.258;2023-04-05T10:06:20;94520.72;;;2.20;81.99
11347;BME280;5728;42.722;23.258;2023-04-05T10:08:47;94524.25;;;2.30;80.01
11347;BME280;5728;42.722;23.258;2023-04-05T10:11:17;94524.41;;;2.43;79.51
11347;BME280;5728;42.722;23.258;2023-04-05T10:13:45;94518.34;;;2.34;78.84
11347;BME280;5728;42.722;23.258;2023-04-05T10:16:20;94517.34;;;2.24;79.84
11347;BME280;5728;42.722;23.258;2023-04-05T10:18:49;94521.13;;;2.53;79.58
11347;BME280;5728;42.722;23.258;2023-04-05T10:21:20;94508.41;;;2.61;79.04
11347;BME280;5728;42.722;23.258;2023-04-05T10:23:53;94524.97;;;2.98;78.60
11347;BME280;5728;42.722;23.258;2023-04-05T10:26:28;94523.06;;;2.77;77.66
11347;BME280;5728;42.722;23.258;2023-04-05T10:29:01;94524.09;;;2.94;78.38
11347;BME280;5728;42.722;23.258;2023-04-05T10:31:40;94510.72;;;3.29;78.21
11347;BME280;5728;42.722;23.258;2023-04-05T10:34:16;94513.19;;;3.18;77.26
11347;BME280;5728;42.722;23.258;2023-04-05T10:36:49;94519.72;;;2.86;77.83
11347;BME280;5728;42.722;23.258;2023-04-05T10:39:22;94509.66;;;3.04;78.73
11347;BME280;5728;42.722;23.258;2023-04-05T10:41:52;94521.72;;;3.18;76.59
11347;BME280;5728;42.722;23.258;2023-04-05T10:44:21;94519.38;;;3.46;76.29
11347;BME280;5728;42.722;23.258;2023-04-05T10:46:48;94513.38;;;3.41;76.29
11347;BME280;5728;42.722;23.258;2023-04-05T10:49:21;94507.22;;;3.20;75.83
11347;BME280;5728;42.722;23.258;2023-04-05T10:51:49;94526.06;;;3.24;75.88
11347;BME280;5728;42.722;23.258;2023-04-05T10:54:18;94527.81;;;3.31;75.75
11347;BME280;5728;42.722;23.258;2023-04-05T10:56:46;94514.81;;;3.08;76.05
11347;BME280;5728;42.722;23.258;2023-04-05T10:59:14;94520.41;;;3.69;76.29
11347;BME280;5728;42.722;23.258;2023-04-05T11:01:45;94514.63;;;4.00;74.11
11347;BME280;5728;42.722;23.258;2023-04-05T11:04:12;94546.41;;;4.34;75.04
11347;BME280;5728;42.722;23.258;2023-04-05T11:06:40;94514.75;;;4.33;72.09
11347;BME280;5728;42.722;23.258;2023-04-05T11:09:11;94532.69;;;4.29;70.75
11347;BME280;5728;42.722;23.258;2023-04-05T11:11:41;94535.03;;;3.86;73.50
11347;BME280;5728;42.722;23.258;2023-04-05T11:14:19;94535.97;;;3.98;73.62
11347;BME280;5728;42.722;23.258;2023-04-05T11:16:48;94541.06;;;3.90;72.64
11347;BME280;5728;42.722;23.258;2023-04-05T11:19:17;94533.19;;;3.66;73.23
11347;BME280;5728;42.722;23.258;2023-04-05T11:21:44;94538.81;;;3.16;74.33
11347;BME280;5728;42.722;23.258;2023-04-05T11:24:12;94527.84;;;3.36;75.24
11347;BME280;5728;42.722;23.258;2023-04-05T11:26:56;94525.66;;;3.87;73.30
11347;BME280;5728;42.722;23.258;2023-04-05T11:29:44;94533.50;;;4.17;71.53
11347;BME280;5728;42.722;23.258;2023-04-05T11:32:13;94525.97;;;4.60;70.62
11347;BME280;5728;42.722;23.258;2023-04-05T11:34:41;94532.09;;;5.13;69.86
11347;BME280;5728;42.722;23.258;2023-04-05T11:37:08;94520.09;;;5.20;70.19
11347;BME280;5728;42.722;23.258;2023-04-05T11:39:35;94528.66;;;5.11;68.71
11347;BME280;5728;42.722;23.258;2023-04-05T11:42:04;94522.66;;;5.23;68.74
11347;BME280;5728;42.722;23.258;2023-04-05T11:44:43;94531.25;;;5.46;67.24
11347;BME280;5728;42.722;23.258;2023-04-05T11:47:11;94526.06;;;5.09;69.35
11347;BME280;5728;42.722;23.258;2023-04-05T11:49:39;94526.94;;;5.73;67.10
11347;BME280;5728;42.722;23.258;2023-04-05T11:52:14;94528.59;;;4.78;69.60
11347;BME280;5728;42.722;23.258;2023-04-05T11:54:42;94518.31;;;4.84;70.32
11347;BME280;5728;42.722;23.258;2023-04-05T11:57:13;94524.28;;;4.63;71.02
11347;BME280;5728;42.722;23.258;2023-04-05T11:59:41;94521.78;;;4.86;74.30
11347;BME280;5728;42.722;23.258;2023-04-05T12:02:07;94523.50;;;5.25;71.33
11347;BME280;5728;42.722;23.258;2023-04-05T12:04:35;94526.69;;;4.22;72.04
11347;BME280;5728;42.722;23.258;2023-04-05T12:07:15;94529.00;;;3.78;74.86
11347;BME280;5728;42.722;23.258;2023-04-05T12:10:12;94534.28;;;4.00;76.14
11347;BME280;5728;42.722;23.258;2023-04-05T12:12:41;94520.63;;;4.08;76.43
11347;BME280;5728;42.722;23.258;2023-04-05T12:15:10;94523.38;;;4.47;75.48
11347;BME280;5728;42.722;23.258;2023-04-05T12:17:40;94524.06;;;4.10;75.26
11347;BME280;5728;42.722;23.258;2023-04-05T12:20:08;94523.19;;;4.05;74.92
11347;BME280;5728;42.722;23.258;2023-04-05T12:22:37;94530.00;;;4.00;76.58
11347;BME280;5728;42.722;23.258;2023-04-05T12:25:05;94534.06;;;3.65;76.53
11347;BME280;5728;42.722;23.258;2023-04-05T12:27:32;94543.69;;;4.08;78.47
11347;BME280;5728;42.722;23.258;2023-04-05T12:30:20;94524.72;;;3.76;77.25
11347;BME280;5728;42.722;23.258;2023-04-05T12:32:50;94524.47;;;3.40;78.29
11347;BME280;5728;42.722;23.258;2023-04-05T12:35:19;94534.09;;;3.72;78.71
11347;BME280;5728;42.722;23.258;2023-04-05T12:37:49;94500.00;;;3.87;77.71
11347;BME280;5728;42.722;23.258;2023-04-05T12:40:19;94518.81;;;3.89;78.24
11347;BME280;5728;42.722;23.258;2023-04-05T12:42:47;94519.75;;;4.00;77.86
11347;BME280;5728;42.722;23.258;2023-04-05T12:45:14;94517.91;;;3.81;76.10
11347;BME280;5728;42.722;23.258;2023-04-05T12:47:49;94526.47;;;3.80;76.36
11347;BME280;5728;42.722;23.258;2023-04-05T12:50:18;94538.41;;;3.78;74.41
11347;BME280;5728;42.722;23.258;2023-04-05T12:52:54;94523.41;;;3.12;75.64
11347;BME280;5728;42.722;23.258;2023-04-05T12:55:21;94526.03;;;3.22;76.17
11347;BME280;5728;42.722;23.258;2023-04-05T12:57:52;94525.38;;;3.46;74.44
11347;BME280;5728;42.722;23.258;2023-04-05T13:00:20;94517.38;;;3.10;74.52
11347;BME280;5728;42.722;23.258;2023-04-05T13:02:50;94519.00;;;2.99;75.61
11347;BME280;5728;42.722;23.258;2023-04-05T13:05:22;94527.13;;;3.53;75.82
11347;BME280;5728;42.722;23.258;2023-04-05T13:07:49;94529.19;;;4.12;74.71
11347;BME280;5728;42.722;23.258;2023-04-05T13:10:19;94529.16;;;4.04;72.20
11347;BME280;5728;42.722;23.258;2023-04-05T13:12:46;94530.03;;;4.09;71.73
11347;BME280;5728;42.722;23.258;2023-04-05T13:15:14;94532.28;;;3.55;73.32
11347;BME280;5728;42.722;23.258;2023-04-05T13:17:41;94533.34;;;3.93;73.01
11347;BME280;5728;42.722;23.258;2023-04-05T13:20:10;94535.28;;;4.30;70.79